createdAt,value
2023-04-08T00:00:28.801Z,5.00
2023-04-08T00:02:55.681Z,4.68
2023-04-08T00:05:22.561Z,5.63
2023-04-08T00:07:49.288Z,5.18
2023-04-08T00:10:16.307Z,4.80
2023-04-08T00:12:43.010Z,5.28
2023-04-08T00:15:10.090Z,5.75
2023-04-08T00:17:36.852Z,5.22
2023-04-08T00:20:04.424Z,5.95
2023-04-08T00:22:31.180Z,5.43
2023-04-08T00:24:58.501Z,4.97
2023-04-08T00:27:25.771Z,6.00
2023-04-08T00:29:52.511Z,5.72
2023-04-08T00:32:19.237Z,6.45
2023-04-08T00:34:45.939Z,5.38
2023-04-08T00:37:12.646Z,6.18
2023-04-08T00:39:39.421Z,7.20
2023-04-08T00:42:06.621Z,6.32
2023-04-08T00:44:33.475Z,5.78
2023-04-08T00:47:00.387Z,6.13
2023-04-08T00:49:27.294Z,6.35
2023-04-08T00:51:55.673Z,6.47
2023-04-08T00:54:22.660Z,6.30
2023-04-08T00:56:49.422Z,6.20
2023-04-08T00:59:18.715Z,6.00
2023-04-08T01:02:00.296Z,6.43
2023-04-08T01:04:50.609Z,6.10
2023-04-08T01:07:31.813Z,6.53
2023-04-08T01:10:16.121Z,5.63
2023-04-08T01:12:49.255Z,6.10
2023-04-08T01:15:16.298Z,6.43
2023-04-08T01:17:44.453Z,6.53
2023-04-08T01:20:13.190Z,6.03
2023-04-08T01:23:01.284Z,6.28
2023-04-08T01:25:32.430Z,5.75
2023-04-08T01:28:11.358Z,6.15
2023-04-08T01:30:42.551Z,6.00
2023-04-08T01:33:13.387Z,7.00
2023-04-08T01:35:40.393Z,6.10
2023-04-08T01:38:08.775Z,6.28
2023-04-08T01:40:38.881Z,6.10
2023-04-08T01:43:08.606Z,6.38
2023-04-08T01:45:35.592Z,6.20
2023-04-08T01:48:03.588Z,5.55
2023-04-08T01:50:31.713Z,6.85
2023-04-08T01:53:00.459Z,6.50
2023-04-08T01:55:28.279Z,6.53
2023-04-08T01:57:59.642Z,5.75
2023-04-08T02:00:29.758Z,6.63
2023-04-08T02:02:58.920Z,6.35
2023-04-08T02:05:25.923Z,5.90
2023-04-08T02:07:52.650Z,5.72
2023-04-08T02:10:20.381Z,6.90
2023-04-08T02:12:47.462Z,6.18
2023-04-08T02:15:14.941Z,6.25
2023-04-08T02:17:47.689Z,6.00
2023-04-08T02:20:19.121Z,7.15
2023-04-08T02:23:02.322Z,6.45
2023-04-08T02:25:30.430Z,5.95
2023-04-08T02:27:58.454Z,6.57
2023-04-08T02:30:27.507Z,6.45
2023-04-08T02:32:55.224Z,6.55
2023-04-08T02:35:23.649Z,6.30
2023-04-08T02:37:51.045Z,6.88
2023-04-08T02:40:32.272Z,6.43
2023-04-08T02:43:00.336Z,6.63
2023-04-08T02:45:42.130Z,6.95
2023-04-08T02:48:10.185Z,6.82
2023-04-08T02:50:37.290Z,7.20
2023-04-08T02:53:04.358Z,6.38
2023-04-08T02:55:32.965Z,6.15
2023-04-08T02:57:59.900Z,6.85
2023-04-08T03:00:27.177Z,6.80
2023-04-08T03:02:54.203Z,6.40
2023-04-08T03:05:21.673Z,6.70
2023-04-08T03:07:48.500Z,6.95
2023-04-08T03:10:16.075Z,7.10
2023-04-08T03:12:42.784Z,6.05
2023-04-08T03:15:09.922Z,7.68
2023-04-08T03:17:36.903Z,7.40
2023-04-08T03:20:06.973Z,7.78
2023-04-08T03:22:34.663Z,7.95
2023-04-08T03:25:01.495Z,8.35
2023-04-08T03:27:28.468Z,8.55
2023-04-08T03:29:55.318Z,8.07
2023-04-08T03:32:22.202Z,8.55
2023-04-08T03:34:51.194Z,8.98
2023-04-08T03:37:18.619Z,8.93
2023-04-08T03:39:46.346Z,8.07
2023-04-08T03:42:13.149Z,9.07
2023-04-08T03:44:39.847Z,9.20
2023-04-08T03:47:06.512Z,8.95
2023-04-08T03:49:33.175Z,9.82
2023-04-08T03:52:00.192Z,9.18
2023-04-08T03:54:27.010Z,9.23
2023-04-08T03:56:53.814Z,9.05
2023-04-08T03:59:20.604Z,9.73
2023-04-08T04:01:47.635Z,10.15
2023-04-08T04:04:14.858Z,10.07
2023-04-08T04:06:41.793Z,9.65
2023-04-08T04:09:08.547Z,10.05
2023-04-08T04:11:35.907Z,9.40
2023-04-08T04:14:03.114Z,10.07
2023-04-08T04:16:32.706Z,11.02
2023-04-08T04:18:59.921Z,10.63
2023-04-08T04:21:27.162Z,9.90
2023-04-08T04:23:54.021Z,10.13
2023-04-08T04:26:21.047Z,10.82
2023-04-08T04:28:47.876Z,10.13
2023-04-08T04:31:27.901Z,11.57
2023-04-08T04:33:54.948Z,10.85
2023-04-08T04:36:21.716Z,11.43
2023-04-08T04:38:50.847Z,11.15
2023-04-08T04:41:18.067Z,11.20
2023-04-08T04:43:44.891Z,11.63
2023-04-08T04:46:11.661Z,11.73
2023-04-08T04:48:38.454Z,10.50
2023-04-08T04:51:07.358Z,11.82
2023-04-08T04:53:34.196Z,12.43
2023-04-08T04:56:03.996Z,12.82
2023-04-08T04:58:30.999Z,12.02
2023-04-08T05:00:57.855Z,13.40
2023-04-08T05:03:24.648Z,12.63
2023-04-08T05:05:55.086Z,12.48
2023-04-08T05:08:22.287Z,12.05
2023-04-08T05:10:50.665Z,11.60
2023-04-08T05:13:18.428Z,12.52
2023-04-08T05:15:47.945Z,12.55
2023-04-08T05:18:15.066Z,12.02
2023-04-08T05:20:44.938Z,12.40
2023-04-08T05:23:11.681Z,12.45
2023-04-08T05:25:38.631Z,13.75
2023-04-08T05:28:05.873Z,13.45
2023-04-08T05:30:32.592Z,12.02
2023-04-08T05:33:00.790Z,13.35
2023-04-08T05:35:28.439Z,14.05
2023-04-08T05:37:55.417Z,12.63
2023-04-08T05:40:22.252Z,14.65
2023-04-08T05:42:48.988Z,12.88
2023-04-08T05:45:16.175Z,13.27
2023-04-08T05:47:43.024Z,14.48
2023-04-08T05:50:11.178Z,14.93
2023-04-08T05:52:38.020Z,14.60
2023-04-08T05:55:06.037Z,13.52
2023-04-08T05:57:32.693Z,15.40
2023-04-08T05:59:59.337Z,16.58
2023-04-08T06:02:26.262Z,16.20
2023-04-08T06:04:53.231Z,15.38
2023-04-08T06:07:19.953Z,15.73
2023-04-08T06:09:46.702Z,16.20
2023-04-08T06:12:13.501Z,16.38
2023-04-08T06:14:40.564Z,16.30
2023-04-08T06:17:07.386Z,16.20
2023-04-08T06:19:34.560Z,17.38
2023-04-08T06:22:02.615Z,17.80
2023-04-08T06:24:29.688Z,17.02
2023-04-08T06:26:56.666Z,17.55
2023-04-08T06:29:23.645Z,19.05
2023-04-08T06:31:51.098Z,18.42
2023-04-08T06:34:18.012Z,19.23
2023-04-08T06:36:44.739Z,19.33
2023-04-08T06:39:11.550Z,20.02
2023-04-08T06:41:38.333Z,20.42
2023-04-08T06:44:19.241Z,19.95
2023-04-08T06:46:49.230Z,21.05
2023-04-08T06:49:16.241Z,21.63
2023-04-08T06:51:43.019Z,21.45
2023-04-08T06:54:12.784Z,21.20
2023-04-08T06:56:39.504Z,20.10
2023-04-08T06:59:06.305Z,21.98
2023-04-08T07:01:33.104Z,21.85
2023-04-08T07:04:02.207Z,22.90
2023-04-08T07:06:29.082Z,22.25
2023-04-08T07:08:56.342Z,22.95
2023-04-08T07:11:23.137Z,22.77
2023-04-08T07:13:49.893Z,23.70
2023-04-08T07:16:16.642Z,23.45
2023-04-08T07:18:43.952Z,23.50
2023-04-08T07:21:10.707Z,25.33
2023-04-08T07:23:37.499Z,23.45
2023-04-08T07:26:07.150Z,24.45
2023-04-08T07:28:33.926Z,22.52
2023-04-08T07:31:16.668Z,22.92
2023-04-08T07:36:12.843Z,20.83
2023-04-08T07:38:40.112Z,21.67
2023-04-08T07:41:07.301Z,21.02
2023-04-08T07:43:34.517Z,20.30
2023-04-08T07:46:05.060Z,19.98
2023-04-08T07:48:32.565Z,20.00
2023-04-08T07:51:09.981Z,19.42
2023-04-08T07:53:38.601Z,19.98
2023-04-08T07:56:12.161Z,18.88
2023-04-08T07:58:40.552Z,21.63
2023-04-08T08:01:23.456Z,20.17
2023-04-08T08:06:18.785Z,18.52
2023-04-08T08:08:45.790Z,18.90
2023-04-08T08:11:12.887Z,20.08
2023-04-08T08:13:39.580Z,21.02
2023-04-08T08:16:09.024Z,20.83
2023-04-08T08:18:36.390Z,19.90
2023-04-08T08:21:03.466Z,20.88
2023-04-08T08:23:30.387Z,20.48
2023-04-08T08:26:03.498Z,20.38
2023-04-08T08:28:30.221Z,19.55
2023-04-08T08:30:57.314Z,20.35
2023-04-08T08:33:25.295Z,20.58
2023-04-08T08:35:55.466Z,21.23
2023-04-08T08:38:22.188Z,20.95
2023-04-08T08:40:55.031Z,21.98
2023-04-08T08:43:22.703Z,19.73
2023-04-08T08:45:49.800Z,20.88
2023-04-08T08:48:17.346Z,20.95
2023-04-08T08:50:44.637Z,21.95
2023-04-08T08:53:11.552Z,26.20
2023-04-08T08:56:05.811Z,21.40
2023-04-08T08:58:27.933Z,20.48
2023-04-08T09:00:54.858Z,19.73
2023-04-08T09:03:29.522Z,19.60
2023-04-08T09:05:59.350Z,18.83
2023-04-08T09:08:29.117Z,19.17
2023-04-08T09:10:57.427Z,18.98
2023-04-08T09:13:24.818Z,17.88
2023-04-08T09:16:03.521Z,17.20
2023-04-08T09:18:30.968Z,16.23
2023-04-08T09:20:59.508Z,15.85
2023-04-08T09:23:42.389Z,16.67
2023-04-08T09:28:37.666Z,14.60
2023-04-08T09:31:24.188Z,16.30
2023-04-08T09:33:53.780Z,15.90
2023-04-08T09:36:20.883Z,14.02
2023-04-08T09:38:50.474Z,15.95
2023-04-08T09:41:18.598Z,14.50
2023-04-08T09:43:50.263Z,14.02
2023-04-08T09:46:25.068Z,14.52
2023-04-08T09:49:12.743Z,15.38
2023-04-08T09:51:53.341Z,13.88
2023-04-08T09:54:23.136Z,13.52
2023-04-08T09:56:58.480Z,14.15
2023-04-08T09:59:30.338Z,13.38
2023-04-08T10:02:01.280Z,13.63
2023-04-08T10:04:34.137Z,14.05
2023-04-08T10:07:04.875Z,12.18
2023-04-08T10:09:32.743Z,13.43
2023-04-08T10:11:59.553Z,13.23
2023-04-08T10:14:28.632Z,11.80
2023-04-08T10:17:36.039Z,12.68
2023-04-08T10:20:03.236Z,13.32
2023-04-08T10:22:29.904Z,13.10
2023-04-08T10:25:15.742Z,12.55
2023-04-08T10:27:44.138Z,11.98
2023-04-08T10:30:26.525Z,10.68
2023-04-08T10:32:57.487Z,11.13
2023-04-08T10:35:31.148Z,11.23
2023-04-08T10:38:01.294Z,11.18
2023-04-08T10:40:28.141Z,11.15
2023-04-08T10:42:56.433Z,10.05
2023-04-08T10:45:23.754Z,10.65
2023-04-08T10:47:50.747Z,10.40
2023-04-08T10:50:19.407Z,10.98
2023-04-08T10:52:54.321Z,9.75
2023-04-08T10:55:24.692Z,11.20
2023-04-08T10:57:51.937Z,11.38
2023-04-08T11:00:19.597Z,10.52
2023-04-08T11:02:46.417Z,11.07
2023-04-08T11:05:13.363Z,11.25
2023-04-08T11:07:41.721Z,11.15
2023-04-08T11:10:09.492Z,10.52
2023-04-08T11:12:37.388Z,10.68
2023-04-08T11:15:04.897Z,11.73
2023-04-08T11:17:34.856Z,11.00
2023-04-08T11:20:06.093Z,11.73
2023-04-08T11:22:34.534Z,11.65
2023-04-08T11:25:02.211Z,10.13
2023-04-08T11:27:29.506Z,10.98
2023-04-08T11:29:57.018Z,10.65
2023-04-08T11:32:26.313Z,9.80
2023-04-08T11:34:53.739Z,10.55
2023-04-08T11:37:21.090Z,10.23
2023-04-08T11:39:47.904Z,10.68
2023-04-08T11:42:27.753Z,11.50
2023-04-08T11:44:54.607Z,11.30
2023-04-08T11:47:21.876Z,11.07
2023-04-08T11:49:48.756Z,10.30
2023-04-08T11:52:15.618Z,9.60
2023-04-08T11:54:43.251Z,10.07
2023-04-08T11:57:10.491Z,9.90
2023-04-08T11:59:37.205Z,9.23
2023-04-08T12:02:07.066Z,10.93
2023-04-08T12:04:34.228Z,9.05
2023-04-08T12:07:01.072Z,10.05
2023-04-08T12:09:31.237Z,11.02
2023-04-08T12:11:58.241Z,9.60
2023-04-08T12:14:26.981Z,10.57
2023-04-08T12:16:55.069Z,10.18
2023-04-08T12:19:21.719Z,11.35
2023-04-08T12:21:48.395Z,9.93
2023-04-08T12:24:15.447Z,10.82
2023-04-08T12:26:42.166Z,10.98
2023-04-08T12:29:11.584Z,10.07
2023-04-08T12:31:38.319Z,10.27
2023-04-08T12:34:05.111Z,9.95
2023-04-08T12:36:31.978Z,10.52
2023-04-08T12:38:58.660Z,9.77
2023-04-08T12:41:25.416Z,10.48
2023-04-08T12:43:52.060Z,11.00
2023-04-08T12:46:21.634Z,10.15
2023-04-08T12:48:48.688Z,11.07
2023-04-08T12:51:16.321Z,11.38
2023-04-08T12:53:43.052Z,11.10
2023-04-08T12:56:10.433Z,11.00
2023-04-08T12:58:37.485Z,12.18
2023-04-08T13:01:04.200Z,12.07
2023-04-08T13:03:32.107Z,11.20
2023-04-08T13:05:59.153Z,11.40
2023-04-08T13:08:26.141Z,12.65
2023-04-08T13:10:52.926Z,11.75
2023-04-08T13:13:19.641Z,12.25
2023-04-08T13:15:47.149Z,12.43
2023-04-08T13:18:14.281Z,12.70
2023-04-08T13:20:41.025Z,12.45
2023-04-08T13:23:07.743Z,12.98
2023-04-08T13:25:34.437Z,12.50
2023-04-08T13:28:01.356Z,13.32
2023-04-08T13:30:28.034Z,12.40
2023-04-08T13:32:54.883Z,13.27
2023-04-08T13:35:21.599Z,13.95
2023-04-08T13:37:48.490Z,13.95
2023-04-08T13:40:15.314Z,13.98
2023-04-08T13:42:41.997Z,13.93
2023-04-08T13:45:09.048Z,13.73
2023-04-08T13:47:37.767Z,13.85
2023-04-08T13:50:06.171Z,15.27
2023-04-08T13:52:33.079Z,12.55
2023-04-08T13:55:00.072Z,15.05
2023-04-08T13:57:26.892Z,13.48
2023-04-08T13:59:53.658Z,14.60
2023-04-08T14:02:21.554Z,13.68
2023-04-08T14:04:49.495Z,15.52
2023-04-08T14:07:16.232Z,15.00
2023-04-08T14:09:42.906Z,14.82
2023-04-08T14:12:09.592Z,15.10
2023-04-08T14:14:36.423Z,14.95
2023-04-08T14:17:04.173Z,14.68
2023-04-08T14:19:31.189Z,14.27
2023-04-08T14:21:58.161Z,16.35
2023-04-08T14:24:24.918Z,15.75
2023-04-08T14:26:51.645Z,16.42
2023-04-08T14:29:18.572Z,17.70
2023-04-08T14:31:45.367Z,15.98
2023-04-08T14:34:12.036Z,16.13
2023-04-08T14:36:38.699Z,14.60
2023-04-08T14:39:05.403Z,14.45
2023-04-08T14:41:32.154Z,15.50
2023-04-08T14:43:58.989Z,16.67
2023-04-08T14:46:28.880Z,16.85
2023-04-08T14:48:56.113Z,14.88
2023-04-08T14:51:22.880Z,14.80
2023-04-08T14:53:49.681Z,14.57
2023-04-08T14:56:19.325Z,14.88
2023-04-08T14:58:46.063Z,14.48
2023-04-08T15:01:12.953Z,15.27
2023-04-08T15:03:39.794Z,17.33
2023-04-08T15:06:07.169Z,14.48
2023-04-08T15:08:35.085Z,15.43
2023-04-08T15:11:01.769Z,16.00
2023-04-08T15:13:28.480Z,15.77
2023-04-08T15:15:55.433Z,15.55
2023-04-08T15:18:22.181Z,16.02
2023-04-08T15:20:48.871Z,20.55
2023-04-08T15:23:15.561Z,16.40
2023-04-08T15:25:42.349Z,16.40
2023-04-08T15:28:09.301Z,15.90
2023-04-08T15:30:36.324Z,16.63
2023-04-08T15:33:04.182Z,17.27
2023-04-08T15:35:31.354Z,16.63
2023-04-08T15:37:58.204Z,15.68
2023-04-08T15:40:25.774Z,15.45
2023-04-08T15:42:52.943Z,16.48
2023-04-08T15:45:19.827Z,17.08
2023-04-08T15:47:46.503Z,16.70
2023-04-08T15:50:14.853Z,15.75
2023-04-08T15:52:41.934Z,15.07
2023-04-08T15:55:08.819Z,17.52
2023-04-08T15:57:36.760Z,16.73
2023-04-08T16:00:10.876Z,19.05
2023-04-08T16:02:40.820Z,17.75
2023-04-08T16:05:08.095Z,17.20
2023-04-08T16:07:34.873Z,18.63
2023-04-08T16:10:01.650Z,17.23
2023-04-08T16:12:28.816Z,18.02
2023-04-08T16:14:55.559Z,17.92
2023-04-08T16:17:22.943Z,17.73
2023-04-08T16:19:51.683Z,18.10
2023-04-08T16:22:18.922Z,18.58
2023-04-08T16:24:45.763Z,20.17
2023-04-08T16:27:12.788Z,19.23
2023-04-08T16:29:39.484Z,19.55
2023-04-08T16:32:06.670Z,20.23
2023-04-08T16:34:36.348Z,20.80
2023-04-08T16:37:03.208Z,19.80
2023-04-08T16:39:30.038Z,21.38
2023-04-08T16:41:56.872Z,20.30
2023-04-08T16:44:23.844Z,20.17
2023-04-08T16:46:50.645Z,18.67
2023-04-08T16:49:18.364Z,20.25
2023-04-08T16:51:45.253Z,20.45
2023-04-08T16:54:11.984Z,20.50
2023-04-08T16:56:44.118Z,19.73
2023-04-08T16:59:11.628Z,19.42
2023-04-08T17:01:38.538Z,20.05
2023-04-08T17:04:05.532Z,20.83
2023-04-08T17:06:34.520Z,20.50
2023-04-08T17:09:03.787Z,22.60
2023-04-08T17:11:31.041Z,22.30
2023-04-08T17:13:58.748Z,21.90
2023-04-08T17:16:25.706Z,21.20
2023-04-08T17:18:52.567Z,22.65
2023-04-08T17:21:20.178Z,21.77
2023-04-08T17:23:47.050Z,20.45
2023-04-08T17:26:13.794Z,20.42
2023-04-08T17:28:41.089Z,20.33
2023-04-08T17:31:07.804Z,19.52
2023-04-08T17:33:34.580Z,20.65
2023-04-08T17:36:01.675Z,22.67
2023-04-08T17:38:28.714Z,21.38
2023-04-08T17:40:55.553Z,21.20
2023-04-08T17:43:22.313Z,20.23
2023-04-08T17:45:50.615Z,20.65
2023-04-08T17:48:19.067Z,21.15
2023-04-08T17:50:46.529Z,21.95
2023-04-08T17:53:13.303Z,22.27
2023-04-08T17:55:47.438Z,22.90
2023-04-08T17:58:14.560Z,22.20
2023-04-08T18:00:41.605Z,22.98
2023-04-08T18:03:09.551Z,22.48
2023-04-08T18:05:36.560Z,22.27
2023-04-08T18:08:03.303Z,21.85
2023-04-08T18:10:30.326Z,22.92
2023-04-08T18:13:07.903Z,21.55
2023-04-08T18:15:38.392Z,21.75
2023-04-08T18:18:05.472Z,22.90
2023-04-08T18:20:37.861Z,22.83
2023-04-08T18:23:04.801Z,21.35
2023-04-08T18:25:32.254Z,22.02
2023-04-08T18:27:59.427Z,23.83
2023-04-08T18:30:26.416Z,21.85
2023-04-08T18:32:53.220Z,23.33
2023-04-08T18:35:20.306Z,23.23
2023-04-08T18:37:47.411Z,24.17
2023-04-08T18:40:14.127Z,21.35
2023-04-08T18:42:41.080Z,21.08
2023-04-08T18:45:08.155Z,21.77
2023-04-08T18:47:34.903Z,21.65
2023-04-08T18:50:01.683Z,21.23
2023-04-08T18:52:28.828Z,20.05
2023-04-08T18:54:55.600Z,20.77
2023-04-08T18:57:22.732Z,20.92
2023-04-08T18:59:49.440Z,21.77
2023-04-08T19:02:16.697Z,20.63
2023-04-08T19:04:43.597Z,22.30
2023-04-08T19:07:11.752Z,20.50
2023-04-08T19:09:38.484Z,20.15
2023-04-08T19:12:05.342Z,22.60
2023-04-08T19:14:32.169Z,21.02
2023-04-08T19:16:58.867Z,22.85
2023-04-08T19:19:25.565Z,22.05
2023-04-08T19:21:52.265Z,20.40
2023-04-08T19:24:20.761Z,23.23
2023-04-08T19:26:49.391Z,23.55
2023-04-08T19:29:16.190Z,23.80
2023-04-08T19:31:43.198Z,22.50
2023-04-08T19:34:10.204Z,22.50
2023-04-08T19:36:36.938Z,23.25
2023-04-08T19:39:04.474Z,23.50
2023-04-08T19:41:31.326Z,22.77
2023-04-08T19:43:58.000Z,22.83
2023-04-08T19:46:24.797Z,22.45
2023-04-08T19:48:51.606Z,24.25
2023-04-08T19:51:22.328Z,24.20
2023-04-08T19:53:51.201Z,23.40
2023-04-08T19:56:18.088Z,26.58
2023-04-08T19:58:44.771Z,27.67
2023-04-08T20:01:14.032Z,29.15
2023-04-08T20:03:49.971Z,28.30
2023-04-08T20:06:17.512Z,27.92
2023-04-08T20:08:44.907Z,30.55
2023-04-08T20:11:12.059Z,31.67
2023-04-08T20:13:39.933Z,32.28
2023-04-08T20:16:07.370Z,33.60
2023-04-08T20:18:34.806Z,36.00
2023-04-08T20:21:01.506Z,34.40
2023-04-08T20:23:28.559Z,38.38
2023-04-08T20:25:56.612Z,36.90
2023-04-08T20:28:23.654Z,39.97
2023-04-08T20:30:51.561Z,39.67
2023-04-08T20:33:19.121Z,38.70
2023-04-08T20:35:46.733Z,39.90
2023-04-08T20:38:13.586Z,41.58
2023-04-08T20:40:44.230Z,41.92
2023-04-08T20:43:11.405Z,43.22
2023-04-08T20:45:38.119Z,41.08
2023-04-08T20:48:05.706Z,40.95
2023-04-08T20:50:32.941Z,39.30
2023-04-08T20:52:59.912Z,38.22
2023-04-08T20:55:26.644Z,40.70
2023-04-08T20:57:53.389Z,39.10
2023-04-08T21:00:20.333Z,38.25
2023-04-08T21:02:47.605Z,40.83
2023-04-08T21:05:14.762Z,40.88
2023-04-08T21:07:44.400Z,38.38
2023-04-08T21:10:12.878Z,37.65
2023-04-08T21:12:39.628Z,37.75
2023-04-08T21:15:06.768Z,36.45
2023-04-08T21:17:33.520Z,35.22
2023-04-08T21:20:00.621Z,36.17
2023-04-08T21:22:27.458Z,35.05
2023-04-08T21:24:56.725Z,37.78
2023-04-08T21:27:23.523Z,34.22
2023-04-08T21:29:53.309Z,37.05
2023-04-08T21:32:20.220Z,35.72
2023-04-08T21:34:46.896Z,37.65
2023-04-08T21:37:13.651Z,36.20
2023-04-08T21:39:40.396Z,35.80
2023-04-08T21:42:07.196Z,37.22
2023-04-08T21:44:33.950Z,35.30
2023-04-08T21:47:02.015Z,36.28
2023-04-08T21:49:32.247Z,37.08
2023-04-08T21:51:58.956Z,38.45
2023-04-08T21:54:25.818Z,36.38
2023-04-08T21:56:52.513Z,37.47
2023-04-08T21:59:19.964Z,35.80
2023-04-08T22:01:46.880Z,37.00
2023-04-08T22:04:13.761Z,35.17
2023-04-08T22:06:41.087Z,35.13
2023-04-08T22:09:07.976Z,33.17
2023-04-08T22:11:34.701Z,36.45
2023-04-08T22:14:01.364Z,36.70
2023-04-08T22:16:28.087Z,34.95
2023-04-08T22:18:54.996Z,35.35
2023-04-08T22:21:21.704Z,33.88
2023-04-08T22:23:48.388Z,34.03
2023-04-08T22:26:15.947Z,35.47
2023-04-08T22:28:42.825Z,33.38
2023-04-08T22:31:11.673Z,33.83
2023-04-08T22:33:39.233Z,34.17
2023-04-08T22:36:06.414Z,33.28
2023-04-08T22:38:33.433Z,34.28
2023-04-08T22:41:00.773Z,30.98
2023-04-08T22:43:27.628Z,31.77
2023-04-08T22:45:54.422Z,32.15
2023-04-08T22:48:21.218Z,33.92
2023-04-08T22:50:47.949Z,29.30
2023-04-08T22:53:14.739Z,29.10
2023-04-08T22:55:41.442Z,30.42
2023-04-08T22:58:08.134Z,28.17
2023-04-08T23:00:34.845Z,26.25
2023-04-08T23:03:04.569Z,25.20
2023-04-08T23:05:31.585Z,28.52
2023-04-08T23:07:58.333Z,27.08
2023-04-08T23:10:25.233Z,26.15
2023-04-08T23:12:52.024Z,25.63
2023-04-08T23:15:18.837Z,28.58
2023-04-08T23:17:45.865Z,27.15
2023-04-08T23:20:12.741Z,27.13
2023-04-08T23:22:39.418Z,24.90
2023-04-08T23:25:06.699Z,26.10
2023-04-08T23:27:33.632Z,24.55
2023-04-08T23:30:06.528Z,23.73
2023-04-08T23:32:33.992Z,23.52
2023-04-08T23:35:01.490Z,23.63
2023-04-08T23:37:29.221Z,23.27
2023-04-08T23:39:56.247Z,21.90
2023-04-08T23:42:26.999Z,23.33
2023-04-08T23:44:54.664Z,23.25
2023-04-08T23:47:21.737Z,22.52
2023-04-08T23:49:48.521Z,23.30
2023-04-08T23:52:15.600Z,23.23
2023-04-08T23:54:42.325Z,23.10
2023-04-08T23:57:09.025Z,23.90
2023-04-08T23:59:35.831Z,23.15
